Hermantown, Minnesota
Current Conditions -  °F | °C
As of 6:55 PM on Wednesday 22 Oct 2014 (Local Time) from KDLH Reporting Station
Scattered Clouds Scattered Clouds  
Wind Chill: 45°   Ceiling: Unl
Heat Index: 49°   Visibility: 10mi
Dew Point: 40°   Wind: 10mph
Humidity: 71%   Direction: 130°SE
Pressure: 30.04"   Gusts: NA
Location:  46.8401°N, 92.218°W
Report Text: KDLH 222355Z 13009KT 10SM FEW070 SCT085 09/04 A3004 RMK AO2 SLP185 T00940044 10139 20094 55007
Loading
Personal Weather Stations






























Interactive Weather Map
Tropical Storm Tracking
New forecast layout! Learn more

10-Day Weather Forecast

Advertisements
Track Severe Weather on mobile